Time;durP1;ratioP1;P1;durP2;ratioP2;P2;SDS_P1;SDS_P2;PMS_P1;PMS_P2;Temp;Humidity;BMP_temperature;BMP_pressure;BME280_temperature;BME280_humidity;BME280_pressure;Samples;Min_cycle;Max_cycle;Signal;HPM_P1;HPM_P2
2021/10/05 00:01:32;;;;;;;23.45;16.75;;;;;;;;;;4992117;28;20464;-68
2021/10/05 00:03:59;;;;;;;26.15;18.02;;;;;;;;;;4992055;28;20047;-68
2021/10/05 00:06:26;;;;;;;25.02;16.77;;;;;;;;;;4991748;28;20490;-68
2021/10/05 00:08:53;;;;;;;22.92;16.27;;;;;;;;;;4991923;28;20108;-68
2021/10/05 00:11:20;;;;;;;23.63;16.05;;;;;;;;;;4991920;28;20054;-68
2021/10/05 00:13:46;;;;;;;25.02;17.67;;;;;;;;;;4991926;28;20054;-68
2021/10/05 00:16:13;;;;;;;25.67;18.30;;;;;;;;;;4991854;28;20050;-69
2021/10/05 00:18:40;;;;;;;25.85;17.02;;;;;;;;;;4992003;28;20488;-68
2021/10/05 00:21:09;;;;;;;26.50;18.10;;;;;;;;;;4992252;28;20051;-69
2021/10/05 00:23:35;;;;;;;25.20;16.73;;;;;;;;;;4992116;28;20050;-68
2021/10/05 00:26:02;;;;;;;28.05;18.42;;;;;;;;;;4990822;28;20054;-68
2021/10/05 00:28:29;;;;;;;28.23;17.88;;;;;;;;;;4991742;28;20125;-68
2021/10/05 00:30:55;;;;;;;29.50;19.05;;;;;;;;;;4991906;28;20124;-68
2021/10/05 00:33:22;;;;;;;25.67;18.17;;;;;;;;;;4991623;28;20133;-68
2021/10/05 00:35:49;;;;;;;27.40;17.60;;;;;;;;;;4995379;28;20093;-68
2021/10/05 00:38:15;;;;;;;26.65;17.25;;;;;;;;;;4995341;28;20476;-68
2021/10/05 00:40:42;;;;;;;31.55;19.17;;;;;;;;;;4995424;28;20050;-68
2021/10/05 00:43:09;;;;;;;27.52;18.63;;;;;;;;;;4995168;28;20050;-68
2021/10/05 00:45:36;;;;;;;32.00;20.25;;;;;;;;;;4978093;28;20124;-68
2021/10/05 00:48:04;;;;;;;32.00;20.25;;;;;;;;;;4995475;28;20086;-68
2021/10/05 00:50:31;;;;;;;34.38;20.30;;;;;;;;;;4995096;28;20050;-68
2021/10/05 00:52:58;;;;;;;39.50;21.02;;;;;;;;;;4995130;28;20051;-69
2021/10/05 00:55:24;;;;;;;36.10;20.73;;;;;;;;;;4994690;28;20120;-68
2021/10/05 00:57:52;;;;;;;34.63;20.17;;;;;;;;;;4995373;28;20468;-68
2021/10/05 01:00:19;;;;;;;38.00;20.75;;;;;;;;;;4995095;28;20050;-68
2021/10/05 01:02:46;;;;;;;39.15;20.55;;;;;;;;;;4994911;28;20054;-68
2021/10/05 01:05:13;;;;;;;38.15;20.98;;;;;;;;;;4994816;28;20142;-68
2021/10/05 01:07:40;;;;;;;35.92;20.20;;;;;;;;;;4995211;28;20050;-68
2021/10/05 01:10:07;;;;;;;44.30;22.25;;;;;;;;;;4994825;28;20489;-68
2021/10/05 01:12:34;;;;;;;41.25;21.23;;;;;;;;;;4994593;28;20484;-68
2021/10/05 01:15:00;;;;;;;40.35;21.17;;;;;;;;;;4994889;28;20079;-68
2021/10/05 01:17:27;;;;;;;45.30;22.05;;;;;;;;;;4994620;28;20050;-68
2021/10/05 01:19:54;;;;;;;42.33;21.55;;;;;;;;;;4994923;28;20110;-68
2021/10/05 01:22:20;;;;;;;43.47;21.80;;;;;;;;;;4994426;28;20050;-67
2021/10/05 01:24:47;;;;;;;45.63;23.45;;;;;;;;;;4994703;28;20054;-67
2021/10/05 01:27:13;;;;;;;45.20;23.60;;;;;;;;;;4994557;28;20058;-68
2021/10/05 01:29:40;;;;;;;59.55;22.55;;;;;;;;;;4994327;28;20046;-68
2021/10/05 01:32:07;;;;;;;49.25;22.23;;;;;;;;;;4994266;28;20548;-69
2021/10/05 01:34:34;;;;;;;45.40;21.38;;;;;;;;;;4994454;28;20058;-67
2021/10/05 01:37:01;;;;;;;46.58;22.00;;;;;;;;;;4994570;28;20092;-68
2021/10/05 01:39:36;;;;;;;50.33;23.20;;;;;;;;;;4994225;28;20054;-68
2021/10/05 01:42:06;;;;;;;46.95;21.15;;;;;;;;;;4993931;28;20058;-68
2021/10/05 01:44:33;;;;;;;41.42;21.23;;;;;;;;;;4993952;28;20101;-67
2021/10/05 01:47:01;;;;;;;44.85;23.00;;;;;;;;;;4993356;28;20498;-69
2021/10/05 01:49:28;;;;;;;48.85;22.27;;;;;;;;;;4993934;28;20494;-69
2021/10/05 01:51:55;;;;;;;40.08;21.80;;;;;;;;;;4993875;28;20460;-68
2021/10/05 01:54:21;;;;;;;47.97;22.98;;;;;;;;;;4993973;28;20054;-69
2021/10/05 01:56:48;;;;;;;50.78;22.90;;;;;;;;;;4993955;28;20472;-68
2021/10/05 01:59:15;;;;;;;44.67;22.58;;;;;;;;;;4994115;28;20297;-68
2021/10/05 02:01:42;;;;;;;41.13;19.95;;;;;;;;;;4993735;28;20058;-68
2021/10/05 02:04:09;;;;;;;42.80;20.73;;;;;;;;;;4993898;28;20168;-68
2021/10/05 02:06:36;;;;;;;41.70;21.25;;;;;;;;;;5008693;28;20058;-68
2021/10/05 02:09:05;;;;;;;37.75;21.80;;;;;;;;;;4993801;28;20053;-68
2021/10/05 02:11:32;;;;;;;51.40;22.83;;;;;;;;;;4993529;28;20046;-69
2021/10/05 02:13:58;;;;;;;45.95;23.23;;;;;;;;;;4993678;28;20050;-68
2021/10/05 02:16:25;;;;;;;55.47;23.75;;;;;;;;;;4993766;28;20069;-68
2021/10/05 02:18:52;;;;;;;45.50;21.60;;;;;;;;;;4993814;28;20137;-69
2021/10/05 02:21:18;;;;;;;53.53;24.23;;;;;;;;;;4993291;28;20104;-68
2021/10/05 02:26:32;;;;;;;59.30;23.48;;;;;;;;;;4993591;28;20094;-68
2021/10/05 02:28:59;;;;;;;53.38;23.98;;;;;;;;;;4992152;28;20054;-67
2021/10/05 02:31:26;;;;;;;55.30;24.10;;;;;;;;;;4993117;28;20548;-68
2021/10/05 02:33:53;;;;;;;58.00;24.80;;;;;;;;;;4993358;28;20062;-68
2021/10/05 02:36:19;;;;;;;55.13;24.70;;;;;;;;;;4993253;28;20058;-67
2021/10/05 02:38:46;;;;;;;63.38;26.55;;;;;;;;;;4993408;28;20410;-67
2021/10/05 02:41:13;;;;;;;56.45;24.63;;;;;;;;;;4993221;28;20098;-68
2021/10/05 02:43:39;;;;;;;60.65;24.10;;;;;;;;;;4993181;28;20050;-67
2021/10/05 02:46:06;;;;;;;60.63;24.85;;;;;;;;;;4993119;28;20058;-67
2021/10/05 02:48:33;;;;;;;54.75;24.83;;;;;;;;;;4993027;28;20418;-68
2021/10/05 02:50:59;;;;;;;52.15;22.75;;;;;;;;;;4993185;28;20049;-68
2021/10/05 02:53:26;;;;;;;67.35;25.77;;;;;;;;;;4992663;28;20050;-67
2021/10/05 02:55:54;;;;;;;55.17;24.75;;;;;;;;;;4992889;28;20548;-69
2021/10/05 02:58:20;;;;;;;50.33;23.25;;;;;;;;;;4992796;28;20058;-67
2021/10/05 03:00:47;;;;;;;65.15;26.10;;;;;;;;;;4992927;28;20406;-67
2021/10/05 03:03:14;;;;;;;60.50;26.85;;;;;;;;;;4992681;28;20188;-67
2021/10/05 03:05:41;;;;;;;52.03;25.25;;;;;;;;;;4992806;28;20058;-67
2021/10/05 03:08:07;;;;;;;69.05;27.00;;;;;;;;;;4992855;28;20054;-68
2021/10/05 03:10:35;;;;;;;65.45;26.75;;;;;;;;;;4992503;28;20124;-67
2021/10/05 03:13:02;;;;;;;60.47;25.88;;;;;;;;;;4992645;28;20406;-68
2021/10/05 03:15:29;;;;;;;59.42;26.00;;;;;;;;;;4992414;28;20563;-67
2021/10/05 03:17:55;;;;;;;64.07;26.75;;;;;;;;;;4992722;28;20050;-68
2021/10/05 03:20:22;;;;;;;53.95;26.45;;;;;;;;;;4992048;28;20097;-67
2021/10/05 03:22:49;;;;;;;58.08;26.33;;;;;;;;;;4992318;28;20057;-67
2021/10/05 03:25:17;;;;;;;56.17;25.30;;;;;;;;;;4989294;28;20050;-68
2021/10/05 03:27:47;;;;;;;51.90;25.67;;;;;;;;;;4992453;28;20103;-67
2021/10/05 03:30:14;;;;;;;60.72;25.92;;;;;;;;;;4991989;28;20042;-67
2021/10/05 03:32:40;;;;;;;64.32;25.40;;;;;;;;;;4992462;28;20058;-71
2021/10/05 03:35:07;;;;;;;70.35;25.67;;;;;;;;;;4992316;28;20054;-71
2021/10/05 03:37:34;;;;;;;64.43;26.63;;;;;;;;;;4992352;28;20058;-70
2021/10/05 03:40:00;;;;;;;72.60;25.70;;;;;;;;;;4991999;28;20100;-71
2021/10/05 03:42:27;;;;;;;64.10;26.40;;;;;;;;;;4992029;28;20500;-71
2021/10/05 03:44:54;;;;;;;81.38;28.40;;;;;;;;;;4992062;28;20481;-70
2021/10/05 03:47:20;;;;;;;69.78;27.65;;;;;;;;;;4990899;28;20050;-71
2021/10/05 03:49:48;;;;;;;61.42;25.25;;;;;;;;;;4991963;28;20493;-70
2021/10/05 03:52:15;;;;;;;64.90;26.20;;;;;;;;;;4991965;28;20054;-71
2021/10/05 03:54:42;;;;;;;67.20;27.17;;;;;;;;;;4992220;28;20124;-71
2021/10/05 03:57:09;;;;;;;69.15;29.13;;;;;;;;;;4992233;28;20050;-71
2021/10/05 03:59:35;;;;;;;82.80;29.98;;;;;;;;;;4992216;28;20505;-71
2021/10/05 04:02:02;;;;;;;75.72;28.50;;;;;;;;;;4990876;28;20108;-71
2021/10/05 04:04:29;;;;;;;89.57;33.35;;;;;;;;;;4992587;28;20050;-71
2021/10/05 04:06:56;;;;;;;98.13;35.00;;;;;;;;;;4994128;28;20054;-71
2021/10/05 04:09:22;;;;;;;98.97;37.20;;;;;;;;;;4997304;28;20470;-69
2021/10/05 04:11:50;;;;;;;86.05;35.05;;;;;;;;;;4997546;28;20101;-71
2021/10/05 04:14:17;;;;;;;101.10;33.42;;;;;;;;;;4995931;28;20046;-71
2021/10/05 04:16:43;;;;;;;77.18;31.38;;;;;;;;;;4978703;28;20112;-71
2021/10/05 04:19:10;;;;;;;87.00;35.25;;;;;;;;;;4995792;28;20511;-71
2021/10/05 04:21:37;;;;;;;87.68;37.03;;;;;;;;;;4995874;28;20054;-70
2021/10/05 04:24:04;;;;;;;71.07;32.47;;;;;;;;;;4995676;28;20058;-71
2021/10/05 04:26:30;;;;;;;79.60;32.42;;;;;;;;;;4995556;28;20054;-71
2021/10/05 04:28:57;;;;;;;71.88;29.23;;;;;;;;;;4995650;28;20133;-71
2021/10/05 04:31:23;;;;;;;73.45;29.08;;;;;;;;;;4994894;28;20101;-71
2021/10/05 04:33:50;;;;;;;66.95;27.23;;;;;;;;;;4995578;28;20051;-72
2021/10/05 04:36:17;;;;;;;78.85;25.67;;;;;;;;;;4995526;28;20108;-71
2021/10/05 04:38:44;;;;;;;76.80;24.90;;;;;;;;;;4995470;28;20046;-71
2021/10/05 04:41:10;;;;;;;78.60;25.85;;;;;;;;;;4995493;28;20050;-71
2021/10/05 04:43:37;;;;;;;63.95;24.17;;;;;;;;;;4995395;28;20065;-71
2021/10/05 04:46:04;;;;;;;70.32;24.83;;;;;;;;;;4995197;28;20054;-71
2021/10/05 04:48:30;;;;;;;61.85;24.13;;;;;;;;;;4995452;28;20065;-71
2021/10/05 04:50:57;;;;;;;73.70;23.33;;;;;;;;;;4994934;28;20493;-71
2021/10/05 04:53:23;;;;;;;65.40;25.25;;;;;;;;;;4995010;28;20156;-70
2021/10/05 04:55:50;;;;;;;80.95;27.33;;;;;;;;;;4994932;28;20054;-71
2021/10/05 04:58:16;;;;;;;65.05;26.40;;;;;;;;;;4995113;28;20077;-72
2021/10/05 05:00:43;;;;;;;63.25;23.77;;;;;;;;;;4995034;28;20062;-71
2021/10/05 05:03:10;;;;;;;77.72;25.65;;;;;;;;;;4995232;28;20051;-71
2021/10/05 05:05:36;;;;;;;66.70;25.10;;;;;;;;;;4995465;28;20470;-72
2021/10/05 05:08:04;;;;;;;59.83;23.27;;;;;;;;;;4995488;28;20061;-72
2021/10/05 05:10:31;;;;;;;70.30;23.42;;;;;;;;;;4996460;28;20042;-71
2021/10/05 05:12:58;;;;;;;55.72;22.63;;;;;;;;;;4998155;28;20502;-70
2021/10/05 05:15:25;;;;;;;62.58;23.65;;;;;;;;;;5000379;28;20054;-71
2021/10/05 05:17:51;;;;;;;53.60;22.23;;;;;;;;;;5003540;28;20054;-71
2021/10/05 05:20:18;;;;;;;65.75;22.15;;;;;;;;;;5004158;28;20356;-71
2021/10/05 05:22:45;;;;;;;71.28;22.80;;;;;;;;;;5007378;28;20054;-71
2021/10/05 05:25:12;;;;;;;60.60;22.63;;;;;;;;;;5023681;28;20050;-71
2021/10/05 05:27:39;;;;;;;56.22;22.77;;;;;;;;;;5011294;28;20115;-71
2021/10/05 05:30:06;;;;;;;85.80;24.45;;;;;;;;;;5005500;28;20058;-71
2021/10/05 05:32:34;;;;;;;61.42;23.90;;;;;;;;;;5006263;28;20054;-69
2021/10/05 05:35:01;;;;;;;62.17;22.50;;;;;;;;;;5008552;28;20058;-70
2021/10/05 05:37:28;;;;;;;69.60;23.73;;;;;;;;;;4992496;28;20112;-71
2021/10/05 05:39:55;;;;;;;67.25;24.08;;;;;;;;;;4994770;28;20054;-70
2021/10/05 05:42:22;;;;;;;79.20;24.33;;;;;;;;;;5011992;28;20054;-71
2021/10/05 05:44:50;;;;;;;65.10;22.02;;;;;;;;;;4991215;28;20050;-71
2021/10/05 05:47:17;;;;;;;53.22;22.17;;;;;;;;;;5008552;28;20105;-71
2021/10/05 05:49:43;;;;;;;56.05;21.90;;;;;;;;;;4991988;28;20081;-69
2021/10/05 05:52:10;;;;;;;58.83;21.35;;;;;;;;;;4988601;28;20105;-71
2021/10/05 05:54:36;;;;;;;64.75;22.98;;;;;;;;;;4994280;28;20062;-72
2021/10/05 05:57:03;;;;;;;49.20;21.63;;;;;;;;;;4994218;28;20104;-70
2021/10/05 05:59:30;;;;;;;58.17;21.80;;;;;;;;;;4997008;28;20102;-70
2021/10/05 06:01:56;;;;;;;57.92;21.63;;;;;;;;;;4988473;28;20085;-71
2021/10/05 06:04:23;;;;;;;60.80;24.17;;;;;;;;;;4993965;28;20054;-71
2021/10/05 06:06:50;;;;;;;62.40;22.85;;;;;;;;;;4995667;28;20081;-71
2021/10/05 06:09:16;;;;;;;57.92;22.48;;;;;;;;;;4995047;28;20058;-71
2021/10/05 06:11:43;;;;;;;64.28;22.45;;;;;;;;;;4993604;28;20630;-71
2021/10/05 06:14:10;;;;;;;63.45;23.20;;;;;;;;;;4993619;28;20047;-71
2021/10/05 06:16:37;;;;;;;58.22;23.05;;;;;;;;;;4993743;28;20116;-72
2021/10/05 06:19:06;;;;;;;63.47;21.50;;;;;;;;;;4992899;28;20054;-69
2021/10/05 06:21:32;;;;;;;62.80;21.30;;;;;;;;;;4992047;28;20080;-70
2021/10/05 06:23:59;;;;;;;59.83;22.10;;;;;;;;;;4992700;28;20050;-70
2021/10/05 06:26:26;;;;;;;59.92;19.83;;;;;;;;;;4991406;28;20058;-69
2021/10/05 06:28:52;;;;;;;56.65;20.95;;;;;;;;;;4991391;28;20054;-70
2021/10/05 06:31:19;;;;;;;51.50;20.10;;;;;;;;;;4990768;28;20050;-70
2021/10/05 06:33:46;;;;;;;50.53;19.17;;;;;;;;;;4991020;28;20587;-70
2021/10/05 06:36:12;;;;;;;55.25;19.45;;;;;;;;;;4992029;28;20501;-70
2021/10/05 06:38:39;;;;;;;50.53;19.52;;;;;;;;;;4991824;28;20053;-71
2021/10/05 06:41:06;;;;;;;53.33;21.05;;;;;;;;;;4991620;28;20046;-70
2021/10/05 06:43:32;;;;;;;44.42;19.65;;;;;;;;;;4991644;28;20505;-68
2021/10/05 06:45:59;;;;;;;42.33;18.63;;;;;;;;;;4991574;28;20112;-70
2021/10/05 06:48:26;;;;;;;42.05;19.13;;;;;;;;;;4991798;28;20062;-70
2021/10/05 06:50:52;;;;;;;49.55;19.02;;;;;;;;;;4991131;28;20101;-70
2021/10/05 06:53:19;;;;;;;39.45;17.50;;;;;;;;;;4991569;28;20100;-70
2021/10/05 06:55:46;;;;;;;38.10;19.33;;;;;;;;;;4991691;28;20054;-71
2021/10/05 06:58:14;;;;;;;43.47;19.40;;;;;;;;;;4990561;28;20058;-69
2021/10/05 07:00:41;;;;;;;53.45;19.67;;;;;;;;;;4991882;28;20618;-71
2021/10/05 07:03:08;;;;;;;52.10;19.30;;;;;;;;;;4973791;28;20398;-70
2021/10/05 07:05:35;;;;;;;50.40;21.88;;;;;;;;;;4990924;28;20054;-69
2021/10/05 07:08:08;;;;;;;51.10;20.13;;;;;;;;;;4992020;28;20578;-71
2021/10/05 07:10:36;;;;;;;43.10;21.25;;;;;;;;;;4991943;28;20054;-70
2021/10/05 07:13:04;;;;;;;40.10;18.10;;;;;;;;;;4972905;28;20104;-70
2021/10/05 07:15:31;;;;;;;41.67;18.58;;;;;;;;;;4990666;28;20459;-70
2021/10/05 07:17:58;;;;;;;31.83;15.95;;;;;;;;;;4983499;28;20054;-68
2021/10/05 07:20:26;;;;;;;36.13;17.33;;;;;;;;;;4983211;28;20097;-68
2021/10/05 07:22:53;;;;;;;29.80;16.05;;;;;;;;;;4982716;28;20564;-68
2021/10/05 07:25:20;;;;;;;29.45;17.00;;;;;;;;;;4978993;28;20070;-67
2021/10/05 07:27:52;;;;;;;28.02;16.67;;;;;;;;;;4979435;28;20051;-67
2021/10/05 07:30:23;;;;;;;24.85;14.45;;;;;;;;;;4978888;28;20046;-67
2021/10/05 07:32:58;;;;;;;30.08;16.42;;;;;;;;;;4975553;28;20506;-68
2021/10/05 07:35:25;;;;;;;26.70;15.07;;;;;;;;;;4981342;28;20042;-66
2021/10/05 07:37:52;;;;;;;27.98;15.73;;;;;;;;;;4981262;28;20049;-67
2021/10/05 07:40:20;;;;;;;26.45;15.55;;;;;;;;;;4978127;28;20050;-66
2021/10/05 07:42:48;;;;;;;24.25;14.35;;;;;;;;;;4979761;28;20137;-67
2021/10/05 07:45:15;;;;;;;24.15;14.95;;;;;;;;;;4974755;28;20055;-68
2021/10/05 07:47:42;;;;;;;24.90;15.93;;;;;;;;;;4978492;28;20452;-68
2021/10/05 07:50:09;;;;;;;22.52;13.20;;;;;;;;;;4975794;28;20461;-68
2021/10/05 07:52:36;;;;;;;19.27;11.93;;;;;;;;;;4977484;28;20085;-68
2021/10/05 07:55:04;;;;;;;20.50;12.10;;;;;;;;;;4977886;28;20109;-67
2021/10/05 07:57:30;;;;;;;19.98;12.50;;;;;;;;;;4978327;28;20469;-68
2021/10/05 07:59:57;;;;;;;18.85;12.07;;;;;;;;;;4976631;28;20055;-73
2021/10/05 08:02:24;;;;;;;22.48;13.25;;;;;;;;;;4979980;28;20497;-71
2021/10/05 08:04:52;;;;;;;18.35;11.25;;;;;;;;;;4976599;28;20062;-67
2021/10/05 08:07:19;;;;;;;15.48;10.40;;;;;;;;;;4980841;28;20466;-69
2021/10/05 08:09:47;;;;;;;13.68;9.10;;;;;;;;;;4960037;28;20543;-69
2021/10/05 08:12:16;;;;;;;14.32;10.07;;;;;;;;;;4975767;28;20517;-69
2021/10/05 08:14:44;;;;;;;14.80;9.77;;;;;;;;;;4963833;28;20051;-68
2021/10/05 08:17:11;;;;;;;15.30;9.52;;;;;;;;;;4975515;28;20066;-70
2021/10/05 08:19:38;;;;;;;13.65;9.95;;;;;;;;;;4976312;28;20047;-65
2021/10/05 08:22:05;;;;;;;13.45;9.57;;;;;;;;;;4980937;28;20509;-65
2021/10/05 08:24:32;;;;;;;13.57;9.73;;;;;;;;;;4970925;28;20054;-68
2021/10/05 08:26:58;;;;;;;11.77;8.35;;;;;;;;;;4977924;28;20055;-67
2021/10/05 08:29:25;;;;;;;11.85;8.75;;;;;;;;;;4980096;28;20105;-69
2021/10/05 08:31:51;;;;;;;12.77;9.77;;;;;;;;;;4978611;28;20461;-68
2021/10/05 08:34:19;;;;;;;12.15;9.07;;;;;;;;;;4980543;28;20047;-69
2021/10/05 08:36:46;;;;;;;11.50;9.25;;;;;;;;;;4979129;28;20553;-69
2021/10/05 08:39:16;;;;;;;12.48;10.02;;;;;;;;;;4978721;28;20050;-69
2021/10/05 08:41:44;;;;;;;15.32;9.88;;;;;;;;;;4981045;28;20324;-69
2021/10/05 08:44:11;;;;;;;14.68;10.57;;;;;;;;;;4980358;28;20055;-70
2021/10/05 08:46:38;;;;;;;14.65;10.15;;;;;;;;;;4979756;28;20101;-69
2021/10/05 08:49:05;;;;;;;12.63;9.32;;;;;;;;;;4981146;28;20051;-69
2021/10/05 08:51:32;;;;;;;11.73;8.90;;;;;;;;;;4978724;28;20047;-69
2021/10/05 08:53:59;;;;;;;12.05;9.80;;;;;;;;;;4979571;28;20406;-69
2021/10/05 08:56:26;;;;;;;16.02;9.95;;;;;;;;;;4981859;28;20058;-70
2021/10/05 08:58:52;;;;;;;11.70;9.30;;;;;;;;;;4982872;28;20502;-69
2021/10/05 09:01:19;;;;;;;12.68;9.82;;;;;;;;;;4985747;28;20456;-69
2021/10/05 09:03:48;;;;;;;14.07;10.38;;;;;;;;;;4982551;28;20049;-69
2021/10/05 09:06:15;;;;;;;14.32;11.10;;;;;;;;;;4965341;28;20079;-69
2021/10/05 09:08:43;;;;;;;16.48;10.52;;;;;;;;;;4982534;28;20074;-69
2021/10/05 09:11:11;;;;;;;13.43;9.85;;;;;;;;;;4980700;28;20050;-69
2021/10/05 09:13:42;;;;;;;14.25;9.90;;;;;;;;;;4985065;28;20124;-69
2021/10/05 09:16:35;;;;;;;14.68;10.13;;;;;;;;;;4980375;28;20054;-69
2021/10/05 09:19:13;;;;;;;13.63;9.52;;;;;;;;;;4979795;28;20413;-69
2021/10/05 09:21:43;;;;;;;11.25;8.30;;;;;;;;;;4980908;28;20046;-69
2021/10/05 09:24:13;;;;;;;14.18;9.13;;;;;;;;;;4986747;28;20055;-69
2021/10/05 09:26:54;;;;;;;11.70;8.40;;;;;;;;;;4980640;28;20046;-68
2021/10/05 09:29:23;;;;;;;12.20;8.82;;;;;;;;;;4985493;28;20113;-69
2021/10/05 09:32:03;;;;;;;8.85;6.47;;;;;;;;;;4982664;28;20051;-69
2021/10/05 09:34:36;;;;;;;6.90;5.63;;;;;;;;;;4979990;28;20520;-70
2021/10/05 09:37:23;;;;;;;7.85;6.15;;;;;;;;;;4984962;28;20074;-75
2021/10/05 09:39:53;;;;;;;7.28;5.43;;;;;;;;;;4973020;28;20518;-72
2021/10/05 09:42:19;;;;;;;5.82;4.68;;;;;;;;;;4974778;28;20102;-68
2021/10/05 09:44:52;;;;;;;7.30;4.68;;;;;;;;;;4981581;28;20505;-67
2021/10/05 09:47:33;;;;;;;5.65;4.28;;;;;;;;;;4980399;28;20062;-66
2021/10/05 09:49:59;;;;;;;4.90;3.90;;;;;;;;;;4979521;28;20109;-73
2021/10/05 09:52:42;;;;;;;5.25;4.40;;;;;;;;;;4981048;28;20046;-66
2021/10/05 09:55:09;;;;;;;4.33;3.73;;;;;;;;;;4980537;28;20100;-66
2021/10/05 09:57:35;;;;;;;4.47;3.88;;;;;;;;;;4980393;28;20462;-74
2021/10/05 10:00:07;;;;;;;4.38;3.80;;;;;;;;;;4973314;28;20054;-68
2021/10/05 10:02:37;;;;;;;5.43;3.80;;;;;;;;;;4979108;28;20043;-70
2021/10/05 10:05:09;;;;;;;4.70;3.10;;;;;;;;;;4984803;28;20093;-69
2021/10/05 10:07:40;;;;;;;3.97;3.30;;;;;;;;;;4982184;28;20138;-71
2021/10/05 10:10:10;;;;;;;3.85;3.20;;;;;;;;;;4980101;28;20054;-71
2021/10/05 10:12:39;;;;;;;5.28;3.72;;;;;;;;;;4973716;28;20046;-70
2021/10/05 10:15:12;;;;;;;3.33;2.97;;;;;;;;;;4975598;28;20050;-70
2021/10/05 10:17:39;;;;;;;4.85;3.28;;;;;;;;;;4975499;28;20047;-74
2021/10/05 10:20:21;;;;;;;4.60;3.15;;;;;;;;;;4956295;28;20142;-71
2021/10/05 10:22:48;;;;;;;3.42;3.00;;;;;;;;;;4960990;28;20101;-73
2021/10/05 10:25:21;;;;;;;3.45;3.03;;;;;;;;;;4978926;28;20043;-75
2021/10/05 10:27:48;;;;;;;2.85;2.40;;;;;;;;;;4985476;28;20114;-73
2021/10/05 10:30:15;;;;;;;3.42;2.47;;;;;;;;;;5002608;28;20043;-74
2021/10/05 10:32:50;;;;;;;2.50;2.30;;;;;;;;;;5004678;28;20498;-73
2021/10/05 10:35:18;;;;;;;2.67;2.40;;;;;;;;;;5006090;28;20049;-71
2021/10/05 10:37:52;;;;;;;2.13;1.92;;;;;;;;;;5004373;28;20042;-65
2021/10/05 10:40:32;;;;;;;2.90;2.17;;;;;;;;;;4998951;28;20107;-65
2021/10/05 10:43:12;;;;;;;2.50;2.30;;;;;;;;;;5003390;28;20084;-68
2021/10/05 10:45:48;;;;;;;3.25;2.28;;;;;;;;;;5009448;28;20034;-69
2021/10/05 10:48:28;;;;;;;2.72;2.38;;;;;;;;;;5001493;28;20054;-69
2021/10/05 10:50:57;;;;;;;3.50;2.33;;;;;;;;;;5002434;28;20066;-75
2021/10/05 10:53:39;;;;;;;2.53;2.17;;;;;;;;;;5005953;28;20098;-78
2021/10/05 10:56:06;;;;;;;2.80;2.20;;;;;;;;;;4998978;28;20038;-74
2021/10/05 10:58:41;;;;;;;2.50;2.30;;;;;;;;;;5003282;28;20030;-79
2021/10/05 11:01:15;;;;;;;3.25;2.53;;;;;;;;;;4990765;28;20042;-75
2021/10/05 11:03:44;;;;;;;4.80;2.47;;;;;;;;;;5007789;28;20085;-81
2021/10/05 11:06:23;;;;;;;2.63;2.42;;;;;;;;;;5001606;28;20042;-75
2021/10/05 11:08:58;;;;;;;3.58;1.95;;;;;;;;;;5006001;28;20026;-74
2021/10/05 11:11:42;;;;;;;3.05;2.00;;;;;;;;;;5003059;28;20049;-74
2021/10/05 11:14:13;;;;;;;4.32;2.58;;;;;;;;;;4989227;28;20058;-66
2021/10/05 11:16:41;;;;;;;2.33;2.00;;;;;;;;;;5004021;28;20050;-66
2021/10/05 11:19:10;;;;;;;2.45;2.15;;;;;;;;;;5003751;28;20039;-66
2021/10/05 11:21:40;;;;;;;2.50;2.30;;;;;;;;;;4999237;28;20046;-65
2021/10/05 11:24:08;;;;;;;2.20;2.00;;;;;;;;;;4992448;28;20050;-65
2021/10/05 11:26:40;;;;;;;2.92;2.20;;;;;;;;;;5001159;28;20047;-65
2021/10/05 11:29:07;;;;;;;3.38;2.30;;;;;;;;;;4978335;28;20095;-65
2021/10/05 11:31:47;;;;;;;2.30;2.05;;;;;;;;;;4977660;28;20093;-65
2021/10/05 11:34:16;;;;;;;2.55;1.80;;;;;;;;;;4980488;28;20050;-66
2021/10/05 11:36:44;;;;;;;2.20;2.00;;;;;;;;;;4982754;28;20502;-66
2021/10/05 11:39:23;;;;;;;4.53;2.20;;;;;;;;;;4977506;28;20054;-65
2021/10/05 11:41:53;;;;;;;2.30;1.75;;;;;;;;;;4982772;28;20100;-65
2021/10/05 11:44:21;;;;;;;1.70;1.60;;;;;;;;;;4984732;28;20062;-65
2021/10/05 11:46:56;;;;;;;2.28;1.48;;;;;;;;;;4999750;28;20136;-75
2021/10/05 11:49:29;;;;;;;1.35;1.25;;;;;;;;;;4987326;28;20062;-77
2021/10/05 11:51:56;;;;;;;1.20;1.10;;;;;;;;;;4971288;28;20046;-71
2021/10/05 11:54:31;;;;;;;1.40;1.30;;;;;;;;;;4999594;28;20042;-72
2021/10/05 11:56:59;;;;;;;1.10;0.95;;;;;;;;;;4986841;28;20035;-74
2021/10/05 11:59:29;;;;;;;1.10;1.00;;;;;;;;;;4994189;28;20037;-69
2021/10/05 12:02:02;;;;;;;1.05;0.95;;;;;;;;;;5007736;28;20074;-71
2021/10/05 12:04:29;;;;;;;1.00;0.90;;;;;;;;;;5001168;28;20313;-74
2021/10/05 12:07:00;;;;;;;1.55;0.90;;;;;;;;;;4997474;28;20031;-72
2021/10/05 12:09:29;;;;;;;0.82;0.82;;;;;;;;;;5003586;28;20054;-69
2021/10/05 12:12:02;;;;;;;1.10;1.00;;;;;;;;;;5001565;28;20081;-69
2021/10/05 12:14:53;;;;;;;1.52;1.30;;;;;;;;;;5003626;28;20046;-72
2021/10/05 12:17:21;;;;;;;1.48;1.38;;;;;;;;;;4993982;28;20069;-74
2021/10/05 12:19:59;;;;;;;1.48;1.35;;;;;;;;;;4975829;28;20042;-75
2021/10/05 12:22:30;;;;;;;1.33;1.02;;;;;;;;;;4984230;28;20039;-76
2021/10/05 12:24:59;;;;;;;0.77;0.77;;;;;;;;;;5002246;28;20082;-71
2021/10/05 12:27:26;;;;;;;5.05;1.48;;;;;;;;;;5002249;28;20062;-72
2021/10/05 12:29:55;;;;;;;3.88;1.27;;;;;;;;;;5003511;28;20042;-69
2021/10/05 12:32:43;;;;;;;0.98;0.82;;;;;;;;;;5008813;28;20035;-72
2021/10/05 12:35:30;;;;;;;1.55;0.60;;;;;;;;;;5009934;28;20046;-72
2021/10/05 12:38:17;;;;;;;0.50;0.50;;;;;;;;;;5009959;28;20065;-74
2021/10/05 12:40:50;;;;;;;0.60;0.50;;;;;;;;;;5006395;28;20240;-72
2021/10/05 12:43:21;;;;;;;1.02;0.68;;;;;;;;;;5009436;28;20030;-73
2021/10/05 12:45:56;;;;;;;0.75;0.60;;;;;;;;;;5007604;28;20094;-74
2021/10/05 12:48:36;;;;;;;0.75;0.75;;;;;;;;;;5000251;28;20037;-71
2021/10/05 12:51:25;;;;;;;0.75;0.50;;;;;;;;;;5006397;28;20051;-73
2021/10/05 12:53:56;;;;;;;0.60;0.47;;;;;;;;;;5005311;28;20063;-72
2021/10/05 12:56:26;;;;;;;1.40;0.40;;;;;;;;;;5009949;28;20416;-75
2021/10/05 12:58:53;;;;;;;0.43;0.43;;;;;;;;;;5006134;28;20047;-74
2021/10/05 13:01:20;;;;;;;1.00;0.80;;;;;;;;;;4996926;28;20050;-74
2021/10/05 13:03:48;;;;;;;3.25;1.48;;;;;;;;;;4995851;28;20058;-72
2021/10/05 13:06:15;;;;;;;2.72;1.10;;;;;;;;;;4999472;28;20118;-66
2021/10/05 13:08:45;;;;;;;1.58;0.60;;;;;;;;;;4989940;28;20050;-67
2021/10/05 13:11:12;;;;;;;0.70;0.68;;;;;;;;;;4965680;28;20570;-67
2021/10/05 13:13:38;;;;;;;1.73;0.88;;;;;;;;;;4984964;28;20065;-67
2021/10/05 13:16:05;;;;;;;0.88;0.70;;;;;;;;;;4982924;28;20055;-66
2021/10/05 13:18:32;;;;;;;0.70;0.70;;;;;;;;;;4982184;28;20061;-67
2021/10/05 13:20:58;;;;;;;0.60;0.60;;;;;;;;;;4986442;28;20325;-66
2021/10/05 13:23:25;;;;;;;1.17;0.90;;;;;;;;;;4985325;28;20457;-67
2021/10/05 13:25:52;;;;;;;1.85;0.40;;;;;;;;;;4980836;28;20109;-67
2021/10/05 13:28:18;;;;;;;0.30;0.20;;;;;;;;;;4981612;28;20050;-66
2021/10/05 13:30:45;;;;;;;1.70;0.45;;;;;;;;;;4981282;28;20054;-65
2021/10/05 13:33:12;;;;;;;2.83;0.68;;;;;;;;;;4983534;28;20047;-66
2021/10/05 13:35:38;;;;;;;2.63;1.63;;;;;;;;;;4984873;28;20104;-66
2021/10/05 13:38:05;;;;;;;3.20;2.88;;;;;;;;;;4980537;28;20059;-65
2021/10/05 13:40:33;;;;;;;2.70;2.50;;;;;;;;;;4981911;28;20462;-66
2021/10/05 13:43:00;;;;;;;1.10;1.10;;;;;;;;;;4980922;28;20047;-66
2021/10/05 13:45:27;;;;;;;0.80;0.50;;;;;;;;;;4986691;28;20047;-67
2021/10/05 13:47:53;;;;;;;0.55;0.30;;;;;;;;;;4979755;28;20109;-66
2021/10/05 13:50:20;;;;;;;0.82;0.45;;;;;;;;;;4981643;28;20532;-66
2021/10/05 13:52:47;;;;;;;0.57;0.22;;;;;;;;;;4983309;28;20109;-66
2021/10/05 13:55:14;;;;;;;1.05;0.40;;;;;;;;;;4981478;28;20127;-66
2021/10/05 13:57:41;;;;;;;0.57;0.32;;;;;;;;;;4982587;28;20161;-67
2021/10/05 14:00:08;;;;;;;0.30;0.30;;;;;;;;;;4980820;28;20054;-66
2021/10/05 14:02:34;;;;;;;1.52;0.43;;;;;;;;;;4981229;28;20051;-66
2021/10/05 14:05:02;;;;;;;0.65;0.38;;;;;;;;;;4983161;28;20088;-66
2021/10/05 14:07:28;;;;;;;0.30;0.30;;;;;;;;;;4987359;28;20058;-67
2021/10/05 14:09:55;;;;;;;1.00;0.30;;;;;;;;;;4985047;28;20050;-70
2021/10/05 14:12:22;;;;;;;0.57;0.47;;;;;;;;;;4985192;28;20050;-76
2021/10/05 14:14:49;;;;;;;0.93;0.40;;;;;;;;;;4959902;28;20054;-68
2021/10/05 14:17:18;;;;;;;1.10;0.30;;;;;;;;;;4982932;28;20527;-68
2021/10/05 14:19:47;;;;;;;2.22;0.50;;;;;;;;;;4974386;28;20495;-68
2021/10/05 14:22:16;;;;;;;1.95;0.47;;;;;;;;;;4983023;28;20060;-68
2021/10/05 14:24:43;;;;;;;0.40;0.40;;;;;;;;;;4981525;28;20050;-68
2021/10/05 14:27:10;;;;;;;0.45;0.35;;;;;;;;;;4983297;28;20046;-76
2021/10/05 14:29:37;;;;;;;1.33;0.40;;;;;;;;;;4962307;28;20059;-74
2021/10/05 14:32:05;;;;;;;0.77;0.40;;;;;;;;;;4982232;28;20494;-72
2021/10/05 14:34:32;;;;;;;0.60;0.60;;;;;;;;;;4983942;28;20054;-75
2021/10/05 14:36:59;;;;;;;0.70;0.60;;;;;;;;;;4965492;28;20677;-74